createdAt,value
2019-01-24T00:02:10.063Z,100522.06
2019-01-24T00:04:40.756Z,100519.75
2019-01-24T00:07:13.387Z,100526.61
2019-01-24T00:09:49.721Z,100527.59
2019-01-24T00:12:20.045Z,100533.04
2019-01-24T00:14:50.510Z,100535.73
2019-01-24T00:17:21.140Z,100534.88
2019-01-24T00:19:51.786Z,100534.22
2019-01-24T00:22:22.663Z,100537.56
2019-01-24T00:24:53.282Z,100541.27
2019-01-24T00:27:23.648Z,100536.97
2019-01-24T00:29:54.014Z,100545.06
2019-01-24T00:32:24.300Z,100548.38
2019-01-24T00:34:54.590Z,100549.21
2019-01-24T00:37:24.934Z,100546.24
2019-01-24T00:39:55.310Z,100544.66
2019-01-24T00:42:25.618Z,100546.19
2019-01-24T00:44:55.906Z,100556.83
2019-01-24T00:47:26.336Z,100553.67
2019-01-24T00:49:57.555Z,100564.64
2019-01-24T00:52:27.835Z,100572.87
2019-01-24T00:54:58.258Z,100567.64
2019-01-24T00:57:28.901Z,100570.77
2019-01-24T00:59:59.199Z,100573.88
2019-01-24T01:02:29.615Z,100575.70
2019-01-24T01:05:00.332Z,100587.32
2019-01-24T01:07:30.558Z,100584.86
2019-01-24T01:10:01.062Z,100588.41
2019-01-24T01:12:31.631Z,100594.05
2019-01-24T01:15:02.073Z,100590.17
2019-01-24T01:17:32.855Z,100592.09
2019-01-24T01:20:05.598Z,100587.20
2019-01-24T01:22:35.927Z,100595.44
2019-01-24T01:25:07.759Z,100604.06
2019-01-24T01:27:38.023Z,100606.13
2019-01-24T01:30:11.545Z,100604.72
2019-01-24T01:32:42.068Z,100608.99
2019-01-24T01:35:12.717Z,100617.27
2019-01-24T01:37:42.924Z,100610.65
2019-01-24T01:40:13.850Z,100620.11
2019-01-24T01:42:44.145Z,100616.63
2019-01-24T01:45:22.503Z,100615.72
2019-01-24T01:47:52.823Z,100619.56
2019-01-24T01:50:24.731Z,100615.63
2019-01-24T01:52:55.114Z,100619.25
2019-01-24T01:55:25.321Z,100617.28
2019-01-24T01:57:55.659Z,100623.81
2019-01-24T02:00:29.845Z,100630.02
2019-01-24T02:03:00.272Z,100629.69
2019-01-24T02:05:32.358Z,100635.81
2019-01-24T02:08:02.707Z,100637.66
2019-01-24T02:10:32.905Z,100635.23
2019-01-24T02:13:03.225Z,100637.30
2019-01-24T02:15:33.543Z,100643.70
2019-01-24T02:18:04.148Z,100654.66
2019-01-24T02:20:34.397Z,100656.12
2019-01-24T02:23:05.434Z,100662.38
2019-01-24T02:25:36.163Z,100668.55
2019-01-24T02:28:06.587Z,100665.47
2019-01-24T02:30:37.730Z,100669.83
2019-01-24T02:33:08.306Z,100668.42
2019-01-24T02:35:38.734Z,100662.34
2019-01-24T02:38:09.476Z,100667.97
2019-01-24T02:40:39.810Z,100663.59
2019-01-24T02:43:10.221Z,100660.14
2019-01-24T02:45:42.445Z,100663.64
2019-01-24T02:48:12.831Z,100665.42
2019-01-24T02:50:43.086Z,100666.25
2019-01-24T02:53:14.545Z,100662.34
2019-01-24T02:55:44.868Z,100659.71
2019-01-24T02:58:15.097Z,100660.59
2019-01-24T03:00:46.027Z,100657.56
2019-01-24T03:03:18.444Z,100657.06
2019-01-24T03:05:49.090Z,100656.63
2019-01-24T03:08:19.491Z,100672.23
2019-01-24T03:10:50.080Z,100670.52
2019-01-24T03:13:21.253Z,100669.19
2019-01-24T03:15:51.849Z,100669.55
2019-01-24T03:18:22.337Z,100676.06
2019-01-24T03:20:52.599Z,100671.23
2019-01-24T03:23:22.966Z,100669.91
2019-01-24T03:25:53.296Z,100671.72
2019-01-24T03:28:23.832Z,100672.27
2019-01-24T03:30:54.226Z,100670.08
2019-01-24T03:33:24.559Z,100667.91
2019-01-24T03:35:54.989Z,100668.75
2019-01-24T03:38:25.280Z,100668.25
2019-01-24T03:40:55.635Z,100664.80
2019-01-24T03:43:25.973Z,100664.33
2019-01-24T03:45:56.269Z,100674.84
2019-01-24T03:48:26.884Z,100675.77
2019-01-24T03:50:57.209Z,100674.47
2019-01-24T03:53:27.580Z,100676.20
2019-01-24T03:55:58.271Z,100679.23
2019-01-24T03:58:30.648Z,100672.78
2019-01-24T04:01:01.087Z,100674.84
2019-01-24T04:03:31.374Z,100679.99
2019-01-24T04:06:01.612Z,100676.03
2019-01-24T04:08:32.128Z,100679.09
2019-01-24T04:11:02.494Z,100679.05
2019-01-24T04:13:33.956Z,100679.48
2019-01-24T04:16:04.304Z,100674.70
2019-01-24T04:18:34.525Z,100677.72
2019-01-24T04:21:04.829Z,100672.94
2019-01-24T04:23:35.199Z,100675.58
2019-01-24T04:26:05.545Z,100675.20
2019-01-24T04:28:35.882Z,100668.73
2019-01-24T04:31:06.428Z,100671.37
2019-01-24T04:33:37.859Z,100680.02
2019-01-24T04:36:08.115Z,100675.65
2019-01-24T04:38:38.397Z,100683.09
2019-01-24T04:41:08.709Z,100687.03
2019-01-24T04:43:39.613Z,100693.20
2019-01-24T04:46:10.050Z,100697.52
2019-01-24T04:48:40.542Z,100700.12
2019-01-24T04:51:10.843Z,100698.34
2019-01-24T04:53:42.009Z,100702.59
2019-01-24T04:56:12.310Z,100703.47
2019-01-24T04:58:42.609Z,100716.02
2019-01-24T05:01:12.980Z,100726.92
2019-01-24T05:03:43.325Z,100727.78
2019-01-24T05:06:14.696Z,100729.48
2019-01-24T05:08:45.409Z,100738.19
2019-01-24T05:11:15.756Z,100739.97
2019-01-24T05:13:46.081Z,100745.63
2019-01-24T05:16:16.455Z,100743.90
2019-01-24T05:18:48.225Z,100733.92
2019-01-24T05:21:18.555Z,100742.56
2019-01-24T05:23:49.216Z,100743.42
2019-01-24T05:26:19.559Z,100746.00
2019-01-24T05:28:49.969Z,100744.69
2019-01-24T05:31:20.342Z,100746.83
2019-01-24T05:33:51.091Z,100756.75
2019-01-24T05:36:21.330Z,100761.56
2019-01-24T05:38:52.048Z,100756.42
2019-01-24T05:41:22.511Z,100759.02
2019-01-24T05:43:53.628Z,100754.23
2019-01-24T05:46:24.211Z,100749.86
2019-01-24T05:48:54.706Z,100748.13
2019-01-24T05:51:25.086Z,100746.39
2019-01-24T05:53:55.952Z,100758.95
2019-01-24T05:56:26.197Z,100764.16
2019-01-24T05:58:56.784Z,100761.14
2019-01-24T06:01:27.585Z,100770.70
2019-01-24T06:03:58.348Z,100768.51
2019-01-24T06:06:28.624Z,100775.87
2019-01-24T06:08:58.850Z,100771.05
2019-01-24T06:11:30.437Z,100771.88
2019-01-24T06:14:00.966Z,100775.33
2019-01-24T06:16:31.780Z,100780.12
2019-01-24T06:19:02.083Z,100784.02
2019-01-24T06:21:32.511Z,100779.19
2019-01-24T06:24:03.144Z,100781.41
2019-01-24T06:26:33.462Z,100777.03
2019-01-24T06:29:03.732Z,100780.48
2019-01-24T06:31:34.287Z,100779.09
2019-01-24T06:34:04.919Z,100779.46
2019-01-24T06:36:35.425Z,100790.73
2019-01-24T06:39:08.656Z,100790.67
2019-01-24T06:41:38.875Z,100788.03
2019-01-24T06:44:09.205Z,100792.38
2019-01-24T06:46:39.572Z,100795.48
2019-01-24T06:49:09.912Z,100802.53
2019-01-24T06:51:40.144Z,100800.03
2019-01-24T06:54:10.458Z,100811.36
2019-01-24T06:56:40.837Z,100808.76
2019-01-24T06:59:11.092Z,100817.79
2019-01-24T07:01:41.361Z,100811.27
2019-01-24T07:04:11.658Z,100810.36
2019-01-24T07:06:42.167Z,100809.97
2019-01-24T07:09:12.846Z,100812.52
2019-01-24T07:11:43.400Z,100821.58
2019-01-24T07:14:13.701Z,100828.09
2019-01-24T07:16:44.006Z,100831.49
2019-01-24T07:19:14.386Z,100838.01
2019-01-24T07:21:45.206Z,100839.22
2019-01-24T07:24:15.954Z,100844.30
2019-01-24T07:26:46.483Z,100842.97
2019-01-24T07:29:16.820Z,100849.06
2019-01-24T07:31:47.221Z,100848.58
2019-01-24T07:34:17.581Z,100842.94
2019-01-24T07:36:48.040Z,100849.48
2019-01-24T07:39:18.361Z,100856.03
2019-01-24T07:41:48.632Z,100854.72
2019-01-24T07:44:19.030Z,100855.52
2019-01-24T07:46:49.381Z,100856.81
2019-01-24T07:49:19.912Z,100858.19
2019-01-24T07:51:50.191Z,100864.20
2019-01-24T07:54:20.842Z,100865.94
2019-01-24T07:56:51.361Z,100869.02
2019-01-24T07:59:21.925Z,100882.45
2019-01-24T08:01:52.211Z,100873.76
2019-01-24T08:04:22.442Z,100878.50
2019-01-24T08:06:52.689Z,100884.09
2019-01-24T08:09:24.251Z,100883.19
2019-01-24T08:11:55.573Z,100881.78
2019-01-24T08:14:25.759Z,100887.51
2019-01-24T08:16:56.000Z,100877.83
2019-01-24T08:19:26.494Z,100886.48
2019-01-24T08:21:57.302Z,100886.44
2019-01-24T08:24:27.761Z,100891.66
2019-01-24T08:26:58.187Z,100890.36
2019-01-24T08:29:28.823Z,100893.80
2019-01-24T08:31:59.396Z,100896.84
2019-01-24T08:34:30.022Z,100894.69
2019-01-24T08:37:00.441Z,100887.36
2019-01-24T08:39:30.675Z,100894.27
2019-01-24T08:42:01.609Z,100900.34
2019-01-24T08:44:32.293Z,100901.19
2019-01-24T08:47:02.761Z,100903.31
2019-01-24T08:49:33.060Z,100906.81
2019-01-24T08:52:03.414Z,100906.46
2019-01-24T08:54:33.770Z,100909.98
2019-01-24T08:57:04.611Z,100915.59
2019-01-24T08:59:34.873Z,100910.80
2019-01-24T09:02:06.263Z,100916.98
2019-01-24T09:04:36.504Z,100919.70
2019-01-24T09:07:06.820Z,100912.72
2019-01-24T09:09:37.221Z,100911.85
2019-01-24T09:12:07.669Z,100915.73
2019-01-24T09:14:38.202Z,100917.83
2019-01-24T09:17:08.426Z,100915.11
2019-01-24T09:19:38.794Z,100918.97
2019-01-24T09:22:09.276Z,100917.63
2019-01-24T09:24:39.936Z,100926.30
2019-01-24T09:27:11.407Z,100924.09
2019-01-24T09:29:41.993Z,100931.40
2019-01-24T09:32:12.644Z,100931.35
2019-01-24T09:34:43.355Z,100936.50
2019-01-24T09:37:13.617Z,100949.16
2019-01-24T09:39:44.044Z,100942.77
2019-01-24T09:42:15.760Z,100939.31
2019-01-24T09:44:49.183Z,100945.44
2019-01-24T09:47:19.742Z,100941.11
2019-01-24T09:49:50.050Z,100949.95
2019-01-24T09:52:20.392Z,100948.09
2019-01-24T09:54:50.704Z,100949.88
2019-01-24T09:57:21.085Z,100955.91
2019-01-24T09:59:51.819Z,100961.08
2019-01-24T10:02:22.249Z,100961.06
2019-01-24T10:04:52.523Z,100960.17
2019-01-24T10:07:23.863Z,100958.91
2019-01-24T10:09:54.309Z,100962.78
2019-01-24T10:12:24.595Z,100960.10
2019-01-24T10:14:54.921Z,100965.38
2019-01-24T10:17:25.899Z,100960.62
2019-01-24T10:19:56.590Z,100966.73
2019-01-24T10:22:27.198Z,100968.92
2019-01-24T10:24:57.667Z,100965.39
2019-01-24T10:27:28.027Z,100980.94
2019-01-24T10:29:58.690Z,100980.53
2019-01-24T10:32:29.706Z,100976.22
2019-01-24T10:35:00.008Z,100972.75
2019-01-24T10:37:30.285Z,100968.89
2019-01-24T10:40:00.862Z,100970.20
2019-01-24T10:42:32.389Z,100971.11
2019-01-24T10:45:02.628Z,100969.67
2019-01-24T10:47:33.217Z,100974.45
2019-01-24T10:50:03.487Z,100965.33
2019-01-24T10:52:34.622Z,100966.20
2019-01-24T10:55:05.633Z,100965.39
2019-01-24T10:57:36.251Z,100968.47
2019-01-24T11:00:10.168Z,100968.08
2019-01-24T11:02:40.529Z,100966.31
2019-01-24T11:05:12.254Z,100963.35
2019-01-24T11:07:42.603Z,100961.12
2019-01-24T11:10:13.435Z,100965.91
2019-01-24T11:12:43.769Z,100971.03
2019-01-24T11:15:16.450Z,100971.05
2019-01-24T11:17:46.973Z,100973.33
2019-01-24T11:20:18.908Z,100973.81
2019-01-24T11:22:49.538Z,100976.39
2019-01-24T11:25:21.459Z,100972.48
2019-01-24T11:27:54.846Z,100970.78
2019-01-24T11:30:26.679Z,100972.92
2019-01-24T11:32:57.107Z,100965.47
2019-01-24T11:35:30.286Z,100963.23
2019-01-24T11:38:00.600Z,100956.70
2019-01-24T11:40:30.866Z,100957.55
2019-01-24T11:43:01.224Z,100961.06
2019-01-24T11:45:33.950Z,100967.93
2019-01-24T11:48:05.944Z,100967.86
2019-01-24T11:50:36.488Z,100967.05
2019-01-24T11:53:07.109Z,100968.64
2019-01-24T11:55:37.442Z,100962.52
2019-01-24T11:58:08.376Z,100962.38
2019-01-24T12:00:48.014Z,100967.19
2019-01-24T12:03:18.667Z,100968.97
2019-01-24T12:05:49.108Z,100963.44
2019-01-24T12:08:19.426Z,100963.46
2019-01-24T12:10:49.951Z,100963.50
2019-01-24T12:13:20.477Z,100959.52
2019-01-24T12:15:50.741Z,100960.36
2019-01-24T12:18:21.344Z,100952.27
2019-01-24T12:20:51.960Z,100950.55
2019-01-24T12:23:22.195Z,100947.05
2019-01-24T12:25:52.721Z,100942.17
2019-01-24T12:28:23.440Z,100940.06
2019-01-24T12:30:53.780Z,100950.51
2019-01-24T12:33:24.431Z,100950.89
2019-01-24T12:35:55.139Z,100952.17
2019-01-24T12:38:25.735Z,100957.47
2019-01-24T12:40:56.159Z,100958.26
2019-01-24T12:43:26.817Z,100954.30
2019-01-24T12:45:57.316Z,100948.13
2019-01-24T12:48:28.012Z,100955.94
2019-01-24T12:50:58.275Z,100949.32
2019-01-24T12:53:28.926Z,100952.37
2019-01-24T12:55:59.276Z,100950.97
2019-01-24T12:58:29.707Z,100950.49
2019-01-24T13:01:00.253Z,100947.88
2019-01-24T13:03:30.671Z,100939.92
2019-01-24T13:06:00.929Z,100947.12
2019-01-24T13:08:31.205Z,100947.81
2019-01-24T13:11:01.753Z,100942.53
2019-01-24T13:13:32.059Z,100946.95
2019-01-24T13:16:02.531Z,100952.70
2019-01-24T13:18:33.317Z,100944.51
2019-01-24T13:21:03.615Z,100941.89
2019-01-24T13:23:33.894Z,100953.17
2019-01-24T13:26:04.344Z,100954.70
2019-01-24T13:28:34.590Z,100956.41
2019-01-24T13:31:04.841Z,100962.10
2019-01-24T13:33:35.268Z,100953.34
2019-01-24T13:36:05.778Z,100956.27
2019-01-24T13:38:36.310Z,100957.61
2019-01-24T13:41:06.797Z,100958.50
2019-01-24T13:43:39.397Z,100962.80
2019-01-24T13:46:10.107Z,100957.64
2019-01-24T13:48:40.615Z,100950.52
2019-01-24T13:51:11.372Z,100954.06
2019-01-24T13:53:41.697Z,100955.77
2019-01-24T13:56:12.025Z,100949.18
2019-01-24T13:58:42.367Z,100951.68
2019-01-24T14:01:12.733Z,100960.30
2019-01-24T14:03:56.749Z,100957.89
2019-01-24T14:06:27.013Z,100953.59
2019-01-24T14:08:57.399Z,100955.30
2019-01-24T14:11:27.694Z,100951.33
2019-01-24T14:13:58.017Z,100944.45
2019-01-24T14:16:28.262Z,100946.11
2019-01-24T14:18:58.848Z,100934.25
2019-01-24T14:21:29.203Z,100940.41
2019-01-24T14:23:59.546Z,100940.46
2019-01-24T14:26:29.930Z,100943.52
2019-01-24T14:29:00.261Z,100938.75
2019-01-24T14:31:30.687Z,100935.06
2019-01-24T14:34:01.047Z,100939.48
2019-01-24T14:36:31.428Z,100940.52
2019-01-24T14:39:02.061Z,100946.63
2019-01-24T14:41:32.432Z,100940.47
2019-01-24T14:44:05.895Z,100940.84
2019-01-24T14:46:36.100Z,100946.06
2019-01-24T14:49:06.430Z,100948.77
2019-01-24T14:51:37.261Z,100953.56
2019-01-24T14:54:07.598Z,100953.48
2019-01-24T14:56:38.091Z,100956.25
2019-01-24T14:59:08.418Z,100959.61
2019-01-24T15:01:39.239Z,100962.28
2019-01-24T15:04:09.911Z,100966.80
2019-01-24T15:06:40.274Z,100967.56
2019-01-24T15:09:10.603Z,100965.77
2019-01-24T15:11:44.989Z,100973.94
2019-01-24T15:14:15.350Z,100972.67
2019-01-24T15:16:45.840Z,100977.03
2019-01-24T15:19:16.304Z,100975.83
2019-01-24T15:21:46.724Z,100968.80
2019-01-24T15:24:17.301Z,100969.08
2019-01-24T15:26:47.792Z,100962.05
2019-01-24T15:29:18.075Z,100963.31
2019-01-24T15:31:48.351Z,100961.06
2019-01-24T15:34:18.667Z,100962.94
2019-01-24T15:36:49.496Z,100967.23
2019-01-24T15:39:19.868Z,100974.13
2019-01-24T15:41:50.329Z,100973.30
2019-01-24T15:44:20.567Z,100978.52
2019-01-24T15:46:51.198Z,100980.31
2019-01-24T15:49:21.987Z,100993.37
2019-01-24T15:51:52.696Z,100992.93
2019-01-24T15:54:22.932Z,100996.04
2019-01-24T15:56:53.188Z,100984.62
2019-01-24T15:59:23.479Z,100986.30
2019-01-24T16:01:53.768Z,101000.38
2019-01-24T16:04:24.229Z,100998.59
2019-01-24T16:06:54.501Z,100994.94
2019-01-24T16:09:24.843Z,100994.41
2019-01-24T16:11:55.222Z,100995.03
2019-01-24T16:14:25.495Z,100997.66
2019-01-24T16:16:56.208Z,101007.32
2019-01-24T16:19:26.478Z,101006.31
2019-01-24T16:21:56.783Z,101014.94
2019-01-24T16:24:27.281Z,101013.25
2019-01-24T16:26:57.674Z,101012.87
2019-01-24T16:29:27.952Z,101014.25
2019-01-24T16:31:58.137Z,101021.97
2019-01-24T16:34:28.553Z,101018.08
2019-01-24T16:36:58.997Z,101015.78
2019-01-24T16:39:29.315Z,101015.34
2019-01-24T16:41:59.720Z,101015.76
2019-01-24T16:44:30.060Z,101016.94
2019-01-24T16:47:00.308Z,101008.62
2019-01-24T16:49:30.995Z,101014.66
2019-01-24T16:52:01.238Z,101016.41
2019-01-24T16:54:31.560Z,101020.80
2019-01-24T16:57:01.846Z,101018.69
2019-01-24T16:59:32.270Z,101019.02
2019-01-24T17:02:02.553Z,101028.64
2019-01-24T17:04:33.267Z,101023.83
2019-01-24T17:07:03.586Z,101020.27
2019-01-24T17:09:34.068Z,101010.27
2019-01-24T17:12:05.743Z,101015.73
2019-01-24T17:14:36.127Z,101014.57
2019-01-24T17:17:06.457Z,101012.75
2019-01-24T17:19:37.682Z,101014.52
2019-01-24T17:22:09.322Z,101016.30
2019-01-24T17:24:41.775Z,101012.30
2019-01-24T17:27:13.476Z,101021.41
2019-01-24T17:29:46.729Z,101030.88
2019-01-24T17:32:19.609Z,101038.55
2019-01-24T17:34:51.918Z,101031.95
2019-01-24T17:37:22.517Z,101034.05
2019-01-24T17:39:53.045Z,101036.59
2019-01-24T17:42:23.465Z,101035.83
2019-01-24T17:44:53.740Z,101028.03
2019-01-24T17:47:24.116Z,101020.19
2019-01-24T17:49:57.797Z,101025.47
2019-01-24T17:52:28.325Z,101029.98
2019-01-24T17:54:58.641Z,101025.52
2019-01-24T17:57:29.018Z,101018.58
2019-01-24T17:59:59.423Z,101026.82
2019-01-24T18:02:30.007Z,101025.59
2019-01-24T18:05:00.543Z,101016.91
2019-01-24T18:07:30.754Z,101022.59
2019-01-24T18:10:01.078Z,101029.16
2019-01-24T18:12:31.488Z,101019.95
2019-01-24T18:15:04.429Z,101023.89
2019-01-24T18:17:35.076Z,101024.31
2019-01-24T18:20:07.977Z,101031.29
2019-01-24T18:22:38.536Z,101034.57
2019-01-24T18:25:10.552Z,101039.68
2019-01-24T18:27:42.609Z,101037.73
2019-01-24T18:30:18.405Z,101035.58
2019-01-24T18:32:49.202Z,101040.64
2019-01-24T18:35:19.761Z,101045.33
2019-01-24T18:37:50.186Z,101048.66
2019-01-24T18:40:22.245Z,101047.72
2019-01-24T18:42:53.091Z,101052.82
2019-01-24T18:45:35.806Z,101057.61
2019-01-24T18:48:15.243Z,101068.11
2019-01-24T18:50:45.763Z,101067.34
2019-01-24T18:53:16.009Z,101066.44
2019-01-24T18:55:46.350Z,101067.33
2019-01-24T18:58:16.688Z,101064.29
2019-01-24T19:00:47.767Z,101068.66
2019-01-24T19:03:18.344Z,101060.85
2019-01-24T19:05:48.603Z,101067.87
2019-01-24T19:08:19.049Z,101066.23
2019-01-24T19:10:49.636Z,101069.77
2019-01-24T19:13:20.024Z,101071.94
2019-01-24T19:15:50.767Z,101077.09
2019-01-24T19:18:21.221Z,101069.72
2019-01-24T19:20:52.251Z,101067.10
2019-01-24T19:23:22.543Z,101073.17
2019-01-24T19:25:54.546Z,101079.23
2019-01-24T19:28:25.235Z,101078.28
2019-01-24T19:30:55.598Z,101078.80
2019-01-24T19:33:26.100Z,101077.64
2019-01-24T19:36:00.382Z,101076.34
2019-01-24T19:38:32.373Z,101070.23
2019-01-24T19:41:02.796Z,101079.83
2019-01-24T19:43:33.871Z,101086.31
2019-01-24T19:46:06.307Z,101079.74
2019-01-24T19:48:37.120Z,101079.34
2019-01-24T19:51:10.421Z,101079.94
2019-01-24T19:53:41.972Z,101078.11
2019-01-24T19:56:12.501Z,101076.31
2019-01-24T19:58:42.733Z,101076.36
2019-01-24T20:01:13.365Z,101071.98
2019-01-24T20:03:44.158Z,101067.20
2019-01-24T20:06:15.595Z,101068.94
2019-01-24T20:08:46.334Z,101075.47
2019-01-24T20:11:20.298Z,101069.42
2019-01-24T20:13:50.688Z,101073.73
2019-01-24T20:16:21.040Z,101076.80
2019-01-24T20:18:52.225Z,101075.00
2019-01-24T20:21:22.740Z,101073.70
2019-01-24T20:23:53.629Z,101077.15
2019-01-24T20:26:24.633Z,101082.33
2019-01-24T20:28:54.960Z,101079.17
2019-01-24T20:31:25.846Z,101081.73
2019-01-24T20:33:56.299Z,101082.27
2019-01-24T20:36:26.880Z,101086.66
2019-01-24T20:38:58.811Z,101082.27
2019-01-24T20:41:32.807Z,101082.27
2019-01-24T20:44:03.503Z,101077.00
2019-01-24T20:46:34.193Z,101074.77
2019-01-24T20:49:04.964Z,101084.38
2019-01-24T20:51:36.444Z,101083.00
2019-01-24T20:54:07.063Z,101089.30
2019-01-24T20:56:38.861Z,101091.98
2019-01-24T20:59:09.234Z,101081.89
2019-01-24T21:01:39.787Z,101084.23
2019-01-24T21:04:10.613Z,101083.20
2019-01-24T21:06:41.482Z,101073.99
2019-01-24T21:09:14.836Z,101075.64
2019-01-24T21:11:44.663Z,101073.99
2019-01-24T21:14:15.248Z,101068.76
2019-01-24T21:16:48.034Z,101065.59
2019-01-24T21:19:19.487Z,101067.23
2019-01-24T21:21:50.070Z,101068.63
2019-01-24T21:24:20.548Z,101063.81
2019-01-24T21:26:50.872Z,101062.39
2019-01-24T21:29:21.365Z,101060.14
2019-01-24T21:31:51.944Z,101063.94
2019-01-24T21:34:22.580Z,101062.58
2019-01-24T21:36:54.097Z,101064.33
2019-01-24T21:39:24.770Z,101069.59
2019-01-24T21:41:54.987Z,101072.21
2019-01-24T21:44:26.446Z,101074.05
2019-01-24T21:46:57.177Z,101078.46
2019-01-24T21:49:27.691Z,101076.68
2019-01-24T21:51:58.126Z,101082.45
2019-01-24T21:54:29.193Z,101084.63
2019-01-24T21:56:59.796Z,101085.64
2019-01-24T21:59:30.151Z,101083.50
2019-01-24T22:02:00.397Z,101091.89
2019-01-24T22:04:30.819Z,101094.52
2019-01-24T22:07:01.175Z,101095.89
2019-01-24T22:09:31.682Z,101083.18
2019-01-24T22:12:02.026Z,101090.17
2019-01-24T22:14:32.379Z,101095.85
2019-01-24T22:17:03.150Z,101096.73
2019-01-24T22:19:34.596Z,101086.20
2019-01-24T22:22:05.125Z,101088.41
2019-01-24T22:24:39.977Z,101090.20
2019-01-24T22:27:11.359Z,101084.75
2019-01-24T22:29:41.958Z,101089.12
2019-01-24T22:32:12.726Z,101088.73
2019-01-24T22:34:43.098Z,101090.77
2019-01-24T22:37:13.344Z,101092.83
2019-01-24T22:39:44.787Z,101082.34
2019-01-24T22:42:15.474Z,101088.09
2019-01-24T22:44:45.898Z,101092.31
2019-01-24T22:47:16.178Z,101087.86
2019-01-24T22:49:47.007Z,101088.31
2019-01-24T22:52:18.047Z,101091.79
2019-01-24T22:54:48.449Z,101097.97
2019-01-24T22:57:18.750Z,101098.44
2019-01-24T22:59:49.279Z,101090.77
2019-01-24T23:02:23.809Z,101099.81
2019-01-24T23:04:54.158Z,101100.70
2019-01-24T23:07:24.461Z,101096.70
2019-01-24T23:09:54.927Z,101093.56
2019-01-24T23:12:25.331Z,101096.66
2019-01-24T23:14:56.256Z,101098.41
2019-01-24T23:17:27.242Z,101104.14
2019-01-24T23:19:57.731Z,101096.75
2019-01-24T23:22:28.477Z,101098.11
2019-01-24T23:24:59.013Z,101098.58
2019-01-24T23:27:29.795Z,101097.73
2019-01-24T23:30:01.002Z,101091.63
2019-01-24T23:32:32.475Z,101095.96
2019-01-24T23:35:02.856Z,101095.53
2019-01-24T23:37:33.151Z,101102.59
2019-01-24T23:40:03.598Z,101100.44
2019-01-24T23:42:38.330Z,101096.98
2019-01-24T23:45:08.999Z,101102.13
2019-01-24T23:47:39.497Z,101099.62
2019-01-24T23:50:10.385Z,101101.78
2019-01-24T23:52:41.881Z,101096.11
2019-01-24T23:55:12.285Z,101089.20
2019-01-24T23:57:42.815Z,101089.59
